Time;durP1;ratioP1;P1;durP2;ratioP2;P2;SDS_P1;SDS_P2;PMS_P1;PMS_P2;Temp;Humidity;BMP_temperature;BMP_pressure;BME280_temperature;BME280_humidity;BME280_pressure;Samples;Min_cycle;Max_cycle;Signal;HPM_P1;HPM_P2
2024/02/05 00:01:38;;;;;;;22.65;4.30;;;11.60;99.90;;;;;;5063145;28;20642;-43
2024/02/05 00:04:04;;;;;;;31.35;5.00;;;11.60;99.90;;;;;;5063133;28;20214;-51
2024/02/05 00:06:30;;;;;;;22.92;4.93;;;11.60;99.90;;;;;;5061738;28;20227;-46
2024/02/05 00:08:57;;;;;;;29.75;4.90;;;11.60;99.90;;;;;;5062725;28;20194;-42
2024/02/05 00:11:22;;;;;;;36.05;5.90;;;11.60;99.90;;;;;;5062454;28;20228;-44
2024/02/05 00:13:48;;;;;;;40.53;5.90;;;11.60;99.90;;;;;;5061674;28;20222;-45
2024/02/05 00:16:14;;;;;;;29.67;5.25;;;11.60;99.90;;;;;;5060945;28;20214;-44
2024/02/05 00:18:40;;;;;;;28.45;5.20;;;11.60;99.90;;;;;;5062584;28;20233;-44
2024/02/05 00:21:06;;;;;;;27.95;5.50;;;11.60;99.90;;;;;;5062793;28;20187;-49
2024/02/05 00:23:32;;;;;;;26.00;5.15;;;11.50;99.90;;;;;;5062767;28;20278;-45
2024/02/05 00:25:57;;;;;;;38.22;6.32;;;11.50;99.90;;;;;;5063273;28;20281;-42
2024/02/05 00:28:23;;;;;;;31.50;5.65;;;11.50;99.90;;;;;;5062531;28;20207;-47
2024/02/05 00:30:49;;;;;;;29.55;5.38;;;11.50;99.90;;;;;;5062177;28;20187;-46
2024/02/05 00:33:15;;;;;;;32.38;5.28;;;11.50;99.90;;;;;;5062733;28;20229;-43
2024/02/05 00:35:41;;;;;;;28.05;5.13;;;11.50;99.90;;;;;;5061361;28;20225;-48
2024/02/05 00:38:07;;;;;;;32.78;5.60;;;11.50;99.90;;;;;;5062463;28;20222;-44
2024/02/05 00:40:33;;;;;;;27.20;5.43;;;11.50;99.90;;;;;;5060921;28;20195;-47
2024/02/05 00:42:59;;;;;;;39.90;6.75;;;11.50;99.90;;;;;;5061844;28;20639;-46
2024/02/05 00:45:25;;;;;;;30.52;5.70;;;11.50;99.90;;;;;;5062453;28;20231;-44
2024/02/05 00:47:52;;;;;;;30.20;5.97;;;11.50;99.90;;;;;;5060441;28;20642;-44
2024/02/05 00:50:17;;;;;;;34.08;5.85;;;11.50;99.90;;;;;;5062118;28;20240;-46
2024/02/05 00:52:43;;;;;;;36.50;5.82;;;11.50;99.90;;;;;;5061734;28;20549;-40
2024/02/05 00:55:09;;;;;;;31.45;4.93;;;11.60;99.90;;;;;;5061507;28;20218;-45
2024/02/05 00:57:35;;;;;;;33.92;5.50;;;11.50;99.90;;;;;;5062048;28;20256;-42
2024/02/05 01:00:03;;;;;;;21.73;4.57;;;11.50;99.90;;;;;;5060669;28;20577;-46
2024/02/05 01:02:29;;;;;;;30.08;5.47;;;11.50;99.90;;;;;;5062043;28;20277;-46
2024/02/05 01:04:56;;;;;;;39.30;6.47;;;11.50;99.90;;;;;;5062059;28;20628;-43
2024/02/05 01:07:22;;;;;;;36.92;6.32;;;11.50;99.90;;;;;;5061522;28;20515;-46
2024/02/05 01:09:47;;;;;;;27.17;5.70;;;11.50;99.90;;;;;;5060937;28;20205;-44
2024/02/05 01:12:13;;;;;;;28.45;5.95;;;11.50;99.90;;;;;;5061803;28;20988;-43
2024/02/05 01:14:39;;;;;;;32.67;5.75;;;11.50;99.90;;;;;;5061681;28;20197;-43
2024/02/05 01:17:05;;;;;;;37.70;6.55;;;11.50;99.90;;;;;;5060807;28;20185;-51
2024/02/05 01:19:32;;;;;;;31.83;6.40;;;11.50;99.90;;;;;;5062063;28;20228;-46
2024/02/05 01:21:58;;;;;;;38.38;6.10;;;11.50;99.90;;;;;;5061494;28;20186;-44
2024/02/05 01:24:24;;;;;;;36.78;5.78;;;11.50;99.90;;;;;;5061062;28;20218;-51
2024/02/05 01:26:50;;;;;;;33.63;6.10;;;11.50;99.90;;;;;;5060992;28;20639;-50
2024/02/05 01:29:16;;;;;;;32.10;6.03;;;11.50;99.90;;;;;;5061117;28;20186;-41
2024/02/05 01:31:45;;;;;;;31.90;6.75;;;11.50;99.90;;;;;;5061661;28;20282;-47
2024/02/05 01:34:11;;;;;;;38.15;6.85;;;11.50;99.90;;;;;;5061267;28;20783;-44
2024/02/05 01:36:36;;;;;;;30.20;5.35;;;11.50;99.90;;;;;;5061268;28;20283;-45
2024/02/05 01:39:04;;;;;;;32.42;6.70;;;11.50;99.90;;;;;;5061162;28;20233;-44
2024/02/05 01:41:31;;;;;;;32.13;5.80;;;11.50;99.90;;;;;;5060624;28;20210;-46
2024/02/05 01:43:58;;;;;;;31.45;5.78;;;11.50;99.90;;;;;;5061668;28;20551;-46
2024/02/05 01:46:25;;;;;;;34.42;5.82;;;11.50;99.90;;;;;;5061220;28;20194;-46
2024/02/05 01:48:57;;;;;;;42.22;7.00;;;11.50;99.90;;;;;;5060551;28;20204;-46
2024/02/05 01:51:24;;;;;;;34.25;5.97;;;11.50;99.90;;;;;;5061015;28;20205;-46
2024/02/05 01:53:52;;;;;;;31.40;5.68;;;11.50;99.90;;;;;;5060950;28;20194;-46
2024/02/05 01:56:23;;;;;;;33.70;6.10;;;11.50;99.90;;;;;;5061089;28;20642;-50
2024/02/05 01:58:49;;;;;;;42.10;7.45;;;11.50;99.90;;;;;;5060887;28;20274;-44
2024/02/05 02:01:15;;;;;;;22.80;4.88;;;11.50;99.90;;;;;;5059818;28;20749;-43
2024/02/05 02:03:42;;;;;;;38.22;6.55;;;11.50;99.90;;;;;;5060775;28;21118;-43
2024/02/05 02:06:10;;;;;;;33.30;6.78;;;11.50;99.90;;;;;;5060667;28;20527;-44
2024/02/05 02:08:37;;;;;;;41.97;7.18;;;11.50;99.90;;;;;;5060466;28;20800;-43
2024/02/05 02:11:03;;;;;;;27.42;6.47;;;11.40;99.90;;;;;;5060925;28;20210;-41
2024/02/05 02:13:30;;;;;;;30.75;5.53;;;11.40;99.90;;;;;;5061149;28;20643;-43
2024/02/05 02:15:57;;;;;;;43.40;6.80;;;11.50;99.90;;;;;;5061191;28;21140;-44
2024/02/05 02:18:25;;;;;;;38.03;6.95;;;11.40;99.90;;;;;;5060569;28;20234;-43
2024/02/05 02:20:57;;;;;;;35.63;6.97;;;11.40;99.90;;;;;;5066234;28;20193;-45
2024/02/05 02:23:29;;;;;;;34.03;6.63;;;11.50;99.90;;;;;;5067170;28;20194;-42
2024/02/05 02:26:00;;;;;;;33.85;6.32;;;11.50;99.90;;;;;;5065459;28;20295;-41
2024/02/05 02:28:26;;;;;;;42.55;6.43;;;11.50;99.90;;;;;;5082430;28;20205;-41
2024/02/05 02:30:53;;;;;;;41.25;7.38;;;11.50;99.90;;;;;;5066998;28;20195;-43
2024/02/05 02:33:42;;;;;;;36.33;6.05;;;11.50;99.90;;;;;;5067353;28;20194;-46
2024/02/05 02:36:10;;;;;;;30.20;6.18;;;11.40;99.90;;;;;;5065736;28;20178;-44
2024/02/05 02:38:51;;;;;;;33.97;6.45;;;11.40;99.90;;;;;;5067297;28;20229;-43
2024/02/05 02:41:22;;;;;;;31.27;5.60;;;11.50;99.90;;;;;;5067067;28;20190;-51
2024/02/05 02:43:54;;;;;;;40.78;6.55;;;11.50;99.90;;;;;;5067409;28;20659;-43
2024/02/05 02:46:20;;;;;;;28.33;5.07;;;11.40;99.90;;;;;;5066846;28;20657;-51
2024/02/05 02:48:46;;;;;;;43.30;6.15;;;11.50;99.90;;;;;;5066798;28;20205;-44
2024/02/05 02:51:12;;;;;;;36.67;6.20;;;11.50;99.90;;;;;;5066223;28;20618;-45
2024/02/05 02:53:38;;;;;;;33.90;6.22;;;11.50;99.90;;;;;;5066802;28;20203;-45
2024/02/05 02:56:04;;;;;;;39.72;6.90;;;11.50;99.90;;;;;;5066725;28;20195;-48
2024/02/05 02:58:30;;;;;;;40.72;6.53;;;11.50;99.90;;;;;;5067353;28;20221;-48
2024/02/05 03:00:57;;;;;;;41.75;7.20;;;11.50;99.90;;;;;;5065396;28;20190;-43
2024/02/05 03:03:23;;;;;;;38.05;6.97;;;11.40;99.90;;;;;;5066203;28;20213;-46
2024/02/05 03:05:49;;;;;;;35.15;6.38;;;11.40;99.90;;;;;;5067223;28;20195;-48
2024/02/05 03:08:14;;;;;;;44.38;6.90;;;11.40;99.90;;;;;;5065061;28;20722;-49
2024/02/05 03:10:40;;;;;;;36.67;6.97;;;11.40;99.90;;;;;;5066277;28;20286;-49
2024/02/05 03:13:06;;;;;;;37.78;6.95;;;11.40;99.90;;;;;;5066890;28;20281;-42
2024/02/05 03:15:31;;;;;;;32.97;7.03;;;11.40;99.90;;;;;;5066839;28;20650;-45
2024/02/05 03:17:58;;;;;;;34.72;6.45;;;11.40;99.90;;;;;;5066963;28;20221;-43
2024/02/05 03:20:41;;;;;;;43.50;6.97;;;11.30;99.90;;;;;;5064678;28;20396;-47
2024/02/05 03:23:09;;;;;;;41.63;8.23;;;11.30;99.90;;;;;;5066460;28;20248;-48
2024/02/05 03:25:35;;;;;;;31.15;6.55;;;11.30;99.90;;;;;;5066766;28;20229;-44
2024/02/05 03:28:01;;;;;;;37.33;6.70;;;11.30;99.90;;;;;;5065499;28;20573;-50
2024/02/05 03:30:29;;;;;;;34.42;7.38;;;11.20;99.90;;;;;;5066837;28;20240;-42
2024/02/05 03:32:55;;;;;;;25.52;6.20;;;11.20;99.90;;;;;;5062679;28;20230;-48
2024/02/05 03:35:22;;;;;;;46.58;7.97;;;11.20;99.90;;;;;;5063047;28;20675;-47
2024/02/05 03:37:48;;;;;;;36.35;7.03;;;11.20;99.90;;;;;;5063941;28;20709;-46
2024/02/05 03:40:14;;;;;;;34.00;7.45;;;11.10;99.90;;;;;;5063373;28;20210;-41
2024/02/05 03:42:40;;;;;;;31.02;6.45;;;11.20;99.90;;;;;;5062606;28;20202;-43
2024/02/05 03:45:06;;;;;;;51.15;7.70;;;11.10;99.90;;;;;;5062308;28;20297;-46
2024/02/05 03:47:32;;;;;;;30.75;6.70;;;11.10;99.90;;;;;;5063627;28;20715;-40
2024/02/05 03:49:57;;;;;;;41.17;7.50;;;11.00;99.90;;;;;;5063453;28;20285;-44
2024/02/05 03:52:23;;;;;;;37.25;6.93;;;11.00;99.90;;;;;;5063423;28;20610;-47
2024/02/05 03:54:49;;;;;;;36.40;7.68;;;10.90;99.90;;;;;;5062764;28;20191;-43
2024/02/05 03:57:15;;;;;;;35.33;6.72;;;10.90;99.90;;;;;;5062897;28;20183;-47
2024/02/05 03:59:41;;;;;;;37.70;6.63;;;10.80;99.90;;;;;;5062846;28;20218;-44
2024/02/05 04:02:07;;;;;;;39.05;8.35;;;10.80;99.90;;;;;;5062966;28;20195;-48
2024/02/05 04:04:33;;;;;;;42.40;7.22;;;10.70;99.90;;;;;;5063543;28;20191;-41
2024/02/05 04:06:59;;;;;;;33.47;7.07;;;10.70;99.90;;;;;;5062693;28;20662;-45
2024/02/05 04:09:24;;;;;;;55.00;8.35;;;10.60;99.90;;;;;;5062645;28;20202;-44
2024/02/05 04:11:51;;;;;;;40.05;7.90;;;10.60;99.90;;;;;;5063016;28;20642;-43
2024/02/05 04:14:17;;;;;;;38.15;7.25;;;10.50;99.90;;;;;;5061893;28;20205;-51
2024/02/05 04:16:43;;;;;;;54.33;8.18;;;10.50;99.90;;;;;;5062881;28;20178;-48
2024/02/05 04:19:09;;;;;;;43.47;8.32;;;10.50;99.90;;;;;;5062874;28;20300;-49
2024/02/05 04:21:34;;;;;;;42.38;8.07;;;10.50;99.90;;;;;;5062502;28;20286;-43
2024/02/05 04:24:00;;;;;;;32.22;6.53;;;10.50;99.90;;;;;;5062565;28;20647;-47
2024/02/05 04:26:26;;;;;;;41.75;7.93;;;10.50;99.90;;;;;;5062760;28;20198;-47
2024/02/05 04:28:52;;;;;;;40.40;7.47;;;10.50;99.90;;;;;;5063003;28;20603;-48
2024/02/05 04:31:18;;;;;;;46.38;8.23;;;10.50;99.90;;;;;;5062257;28;20231;-48
2024/02/05 04:33:44;;;;;;;36.60;8.43;;;10.50;99.90;;;;;;5062140;28;20620;-45
2024/02/05 04:36:14;;;;;;;42.00;8.38;;;10.50;99.90;;;;;;5062482;28;20206;-46
2024/02/05 04:38:40;;;;;;;36.13;7.63;;;10.50;99.90;;;;;;5060715;28;20707;-39
2024/02/05 04:41:07;;;;;;;39.95;7.50;;;10.50;99.90;;;;;;5061885;28;20187;-45
2024/02/05 04:43:33;;;;;;;36.92;8.50;;;10.50;99.90;;;;;;5060987;28;20248;-45
2024/02/05 04:45:59;;;;;;;46.33;8.73;;;10.50;99.90;;;;;;5062051;28;20198;-46
2024/02/05 04:48:25;;;;;;;37.25;6.90;;;10.50;99.90;;;;;;5033983;28;20205;-46
2024/02/05 04:50:51;;;;;;;49.08;8.43;;;10.50;99.90;;;;;;5062077;28;20194;-47
2024/02/05 04:53:17;;;;;;;34.05;7.85;;;10.40;99.90;;;;;;5061962;28;20210;-42
2024/02/05 04:55:43;;;;;;;34.63;7.30;;;10.40;99.90;;;;;;5061059;28;20782;-44
2024/02/05 04:58:09;;;;;;;30.42;7.20;;;10.40;99.90;;;;;;5062179;28;21208;-43
2024/02/05 05:00:35;;;;;;;49.20;9.15;;;10.40;99.90;;;;;;5057958;28;20273;-45
2024/02/05 05:03:01;;;;;;;36.08;7.35;;;10.40;99.90;;;;;;5062116;28;20201;-46
2024/02/05 05:05:27;;;;;;;45.33;8.27;;;10.40;99.90;;;;;;5061584;28;20186;-42
2024/02/05 05:07:53;;;;;;;43.15;8.13;;;10.40;99.90;;;;;;5056333;28;20240;-43
2024/02/05 05:10:19;;;;;;;52.08;9.32;;;10.30;99.90;;;;;;5061180;28;20563;-41
2024/02/05 05:12:44;;;;;;;38.92;8.25;;;10.30;99.90;;;;;;5062115;28;20555;-46
2024/02/05 05:15:15;;;;;;;40.40;7.80;;;10.40;99.90;;;;;;5061811;28;20338;-47
2024/02/05 05:17:42;;;;;;;40.17;7.93;;;10.40;99.90;;;;;;5061213;28;20225;-48
2024/02/05 05:20:08;;;;;;;36.97;7.90;;;10.40;99.90;;;;;;5048397;28;20268;-45
2024/02/05 05:22:33;;;;;;;36.55;7.32;;;10.30;99.90;;;;;;5061114;28;20667;-46
2024/02/05 05:24:59;;;;;;;46.50;7.95;;;10.40;99.90;;;;;;5060912;28;20308;-43
2024/02/05 05:27:25;;;;;;;40.00;9.00;;;10.40;99.90;;;;;;5059943;28;20186;-45
2024/02/05 05:29:50;;;;;;;37.80;8.45;;;10.40;99.90;;;;;;5061386;28;20190;-44
2024/02/05 05:32:16;;;;;;;45.53;7.88;;;10.40;99.90;;;;;;5061321;28;20221;-46
2024/02/05 05:34:42;;;;;;;44.40;8.73;;;10.40;99.90;;;;;;5061283;28;20617;-45
2024/02/05 05:37:08;;;;;;;57.35;9.20;;;10.40;99.90;;;;;;5060968;28;20191;-45
2024/02/05 05:39:35;;;;;;;39.95;7.82;;;10.40;99.90;;;;;;5055477;28;20218;-49
2024/02/05 05:42:01;;;;;;;41.28;8.57;;;10.40;99.90;;;;;;5061556;28;20191;-48
2024/02/05 05:44:27;;;;;;;49.45;8.50;;;10.40;99.90;;;;;;5061317;28;20734;-45
2024/02/05 05:46:56;;;;;;;41.58;7.95;;;10.40;99.90;;;;;;5061066;28;20266;-50
2024/02/05 05:49:21;;;;;;;34.22;7.47;;;10.40;99.90;;;;;;5060618;28;20313;-44
2024/02/05 05:51:47;;;;;;;35.38;8.02;;;10.30;99.90;;;;;;5061117;28;20281;-46
2024/02/05 05:54:13;;;;;;;27.75;5.78;;;10.40;99.90;;;;;;5059820;28;20225;-42
2024/02/05 05:56:39;;;;;;;40.00;8.48;;;10.30;99.90;;;;;;5076250;28;20237;-43
2024/02/05 05:59:04;;;;;;;34.47;7.78;;;10.30;99.90;;;;;;5060425;28;20264;-42
2024/02/05 06:01:35;;;;;;;45.15;9.32;;;10.30;99.90;;;;;;5059790;28;20198;-43
2024/02/05 06:04:02;;;;;;;42.42;7.95;;;10.30;99.90;;;;;;5060563;28;20190;-51
2024/02/05 06:06:28;;;;;;;38.03;7.10;;;10.30;99.90;;;;;;5060915;28;20194;-48
2024/02/05 06:08:54;;;;;;;37.92;8.27;;;10.30;99.90;;;;;;5060004;28;20268;-46
2024/02/05 06:11:19;;;;;;;43.58;8.13;;;10.30;99.90;;;;;;5060771;28;20961;-44
2024/02/05 06:13:45;;;;;;;41.65;7.82;;;10.40;99.90;;;;;;5060366;28;20198;-45
2024/02/05 06:16:11;;;;;;;43.22;8.68;;;10.30;99.90;;;;;;5060940;28;20208;-42
2024/02/05 06:18:37;;;;;;;34.35;7.75;;;10.30;99.90;;;;;;5060719;28;20303;-46
2024/02/05 06:21:05;;;;;;;41.55;7.40;;;10.30;99.90;;;;;;5059295;28;20218;-48
2024/02/05 06:23:31;;;;;;;43.72;8.55;;;10.30;99.90;;;;;;5061028;28;20175;-48
2024/02/05 06:25:57;;;;;;;36.38;8.95;;;10.30;99.90;;;;;;5060191;28;20716;-43
2024/02/05 06:28:22;;;;;;;39.65;7.68;;;10.30;99.90;;;;;;5060560;28;20198;-44
2024/02/05 06:30:50;;;;;;;36.80;7.85;;;10.30;99.90;;;;;;5060292;28;20204;-46
2024/02/05 06:33:16;;;;;;;44.08;8.50;;;10.30;99.90;;;;;;5060263;28;20204;-46
2024/02/05 06:35:42;;;;;;;38.13;8.50;;;10.30;99.90;;;;;;5060073;28;20195;-43
2024/02/05 06:38:08;;;;;;;43.08;8.40;;;10.30;99.90;;;;;;5059920;28;20267;-43
2024/02/05 06:40:34;;;;;;;43.47;8.98;;;10.30;99.90;;;;;;5059562;28;20617;-47
2024/02/05 06:43:00;;;;;;;46.95;8.85;;;10.20;99.90;;;;;;5060256;28;20182;-41
2024/02/05 06:45:26;;;;;;;40.35;8.82;;;10.30;99.90;;;;;;5060211;28;20198;-47
2024/02/05 06:47:52;;;;;;;47.72;9.60;;;10.30;99.90;;;;;;5059919;28;20190;-45
2024/02/05 06:50:17;;;;;;;47.22;9.55;;;10.30;99.90;;;;;;5059669;28;20206;-48
2024/02/05 06:52:43;;;;;;;46.13;9.13;;;10.30;99.90;;;;;;5059942;28;20186;-42
2024/02/05 06:55:09;;;;;;;39.95;7.97;;;10.20;99.90;;;;;;5058968;28;20569;-45
2024/02/05 06:57:35;;;;;;;42.80;8.88;;;10.30;99.90;;;;;;5059737;28;20298;-49
2024/02/05 07:00:03;;;;;;;44.85;8.70;;;10.30;99.90;;;;;;5059729;28;20191;-48
2024/02/05 07:02:29;;;;;;;48.33;8.77;;;10.30;99.90;;;;;;5058323;28;20179;-46
2024/02/05 07:04:56;;;;;;;43.25;8.27;;;10.30;99.90;;;;;;5058362;28;21141;-43
2024/02/05 07:07:22;;;;;;;35.45;7.43;;;10.30;99.90;;;;;;5061802;28;20195;-46
2024/02/05 07:09:48;;;;;;;44.05;8.05;;;10.30;99.90;;;;;;5062840;28;20201;-50
2024/02/05 07:12:14;;;;;;;40.55;8.25;;;10.30;99.90;;;;;;5063338;28;20659;-45
2024/02/05 07:14:40;;;;;;;40.60;7.70;;;10.30;99.90;;;;;;5063927;28;20205;-46
2024/02/05 07:17:06;;;;;;;35.35;6.90;;;10.30;99.90;;;;;;5062511;28;20186;-44
2024/02/05 07:19:32;;;;;;;29.08;6.45;;;10.30;99.90;;;;;;5061951;28;20218;-46
2024/02/05 07:21:57;;;;;;;46.83;8.55;;;10.30;99.90;;;;;;5060877;28;20305;-44
2024/02/05 07:24:23;;;;;;;43.22;7.45;;;10.30;99.90;;;;;;5063084;28;20235;-44
2024/02/05 07:26:49;;;;;;;37.75;7.00;;;10.30;99.90;;;;;;5061202;28;20276;-49
2024/02/05 07:29:14;;;;;;;34.95;6.97;;;10.30;99.90;;;;;;5062888;28;20197;-49
2024/02/05 07:31:40;;;;;;;34.90;7.55;;;10.30;99.90;;;;;;5063757;28;20661;-44
2024/02/05 07:34:06;;;;;;;49.17;7.90;;;10.20;99.90;;;;;;5061826;28;20642;-50
2024/02/05 07:36:32;;;;;;;33.92;6.72;;;10.30;99.90;;;;;;5062319;28;20198;-46
2024/02/05 07:38:58;;;;;;;40.50;7.10;;;10.20;99.90;;;;;;5043322;28;20210;-43
2024/02/05 07:41:23;;;;;;;25.17;5.28;;;10.20;99.90;;;;;;5045131;28;20662;-45
2024/02/05 07:43:49;;;;;;;33.05;7.32;;;10.20;99.90;;;;;;5059430;28;20195;-47
2024/02/05 07:46:15;;;;;;;22.13;5.15;;;10.20;99.90;;;;;;5063080;28;20447;-43
2024/02/05 07:48:40;;;;;;;43.15;7.38;;;10.20;99.90;;;;;;5062141;28;20190;-45
2024/02/05 07:51:08;;;;;;;39.88;7.43;;;10.20;99.90;;;;;;5062710;28;20271;-50
2024/02/05 07:53:33;;;;;;;40.50;7.75;;;10.20;99.90;;;;;;5078395;28;20190;-51
2024/02/05 07:55:59;;;;;;;34.80;7.45;;;10.20;99.90;;;;;;5061034;28;20201;-51
2024/02/05 07:58:25;;;;;;;31.42;6.85;;;10.20;99.90;;;;;;5062704;28;20372;-46
2024/02/05 08:00:51;;;;;;;39.63;6.70;;;10.20;99.90;;;;;;5061995;28;20650;-49
2024/02/05 08:03:17;;;;;;;34.58;6.45;;;10.20;99.90;;;;;;5062373;28;20190;-47
2024/02/05 08:05:43;;;;;;;31.77;6.38;;;10.10;99.90;;;;;;5062169;28;20671;-43
2024/02/05 08:08:09;;;;;;;40.20;7.32;;;10.10;99.90;;;;;;5063079;28;20199;-46
2024/02/05 08:10:36;;;;;;;32.40;5.97;;;10.10;99.90;;;;;;5062822;28;20190;-49
2024/02/05 08:13:03;;;;;;;37.42;6.82;;;10.10;99.90;;;;;;5077766;28;20218;-46
2024/02/05 08:15:29;;;;;;;37.45;7.22;;;10.10;99.90;;;;;;5062520;28;20248;-48
2024/02/05 08:17:55;;;;;;;37.25;7.18;;;10.10;99.90;;;;;;5061651;28;20496;-51
2024/02/05 08:20:20;;;;;;;42.95;7.80;;;10.10;99.90;;;;;;5062755;28;20301;-48
2024/02/05 08:22:46;;;;;;;34.20;6.97;;;10.10;99.90;;;;;;5063084;28;20187;-47
2024/02/05 08:25:12;;;;;;;34.67;6.38;;;10.10;99.90;;;;;;5044944;28;20587;-44
2024/02/05 08:27:38;;;;;;;34.10;5.53;;;10.10;99.90;;;;;;5077370;28;20222;-44
2024/02/05 08:30:04;;;;;;;40.88;7.05;;;10.10;99.90;;;;;;5062451;28;20277;-52
2024/02/05 08:32:29;;;;;;;37.58;6.75;;;10.20;99.90;;;;;;5062030;28;20552;-47
2024/02/05 08:34:55;;;;;;;31.27;6.53;;;10.10;99.90;;;;;;5061315;28;20186;-48
2024/02/05 08:37:21;;;;;;;40.25;6.93;;;10.20;99.90;;;;;;5061011;28;20535;-49
2024/02/05 08:39:47;;;;;;;38.85;7.28;;;10.20;99.90;;;;;;5059788;28;20301;-44
2024/02/05 08:42:13;;;;;;;45.95;7.00;;;10.20;99.90;;;;;;5061034;28;20290;-45
2024/02/05 08:44:38;;;;;;;31.95;6.68;;;10.20;99.90;;;;;;5061773;28;20197;-43
2024/02/05 08:47:04;;;;;;;41.30;6.53;;;10.20;99.90;;;;;;5061507;28;20210;-43
2024/02/05 08:49:30;;;;;;;34.60;7.18;;;10.30;99.90;;;;;;5060580;28;20190;-45
2024/02/05 08:51:56;;;;;;;31.77;6.53;;;10.30;99.90;;;;;;5061570;28;20281;-54
2024/02/05 08:54:22;;;;;;;40.03;7.13;;;10.30;99.90;;;;;;5060470;28;20187;-42
2024/02/05 08:56:48;;;;;;;23.58;5.65;;;10.30;99.90;;;;;;5092217;28;20260;-46
2024/02/05 08:59:14;;;;;;;20.45;5.55;;;10.30;99.90;;;;;;5061029;28;20218;-43
2024/02/05 09:01:41;;;;;;;42.00;7.60;;;10.30;99.90;;;;;;5061250;28;20191;-49
2024/02/05 09:04:07;;;;;;;32.63;6.63;;;10.40;99.90;;;;;;5060726;28;20302;-49
2024/02/05 09:06:33;;;;;;;31.38;6.93;;;10.40;99.90;;;;;;5061520;28;20221;-44
2024/02/05 09:08:59;;;;;;;36.40;7.30;;;10.30;99.90;;;;;;5060463;28;20198;-46
2024/02/05 09:11:24;;;;;;;32.75;7.50;;;10.30;99.90;;;;;;5060833;28;20670;-48
2024/02/05 09:13:50;;;;;;;39.85;7.25;;;10.40;99.90;;;;;;5059520;28;20186;-45
2024/02/05 09:16:16;;;;;;;34.33;7.10;;;10.40;99.90;;;;;;5060932;28;20226;-47
2024/02/05 09:18:41;;;;;;;35.65;6.38;;;10.40;99.90;;;;;;5061022;28;20268;-46
2024/02/05 09:21:07;;;;;;;31.90;6.80;;;10.40;99.90;;;;;;5061188;28;20179;-45
2024/02/05 09:23:34;;;;;;;33.95;6.60;;;10.40;99.90;;;;;;5059936;28;20199;-45
2024/02/05 09:26:00;;;;;;;39.70;7.35;;;10.40;99.90;;;;;;5059780;28;20230;-42
2024/02/05 09:28:25;;;;;;;32.88;6.18;;;10.50;99.90;;;;;;5059300;28;20189;-48
2024/02/05 09:30:51;;;;;;;25.83;5.85;;;10.50;99.90;;;;;;5060208;28;20209;-44
2024/02/05 09:33:18;;;;;;;30.25;5.32;;;10.40;99.90;;;;;;5061397;28;20191;-46
2024/02/05 09:35:44;;;;;;;30.88;7.07;;;10.40;99.90;;;;;;5059541;28;20277;-47
2024/02/05 09:38:10;;;;;;;39.97;6.50;;;10.40;99.90;;;;;;5060158;28;20305;-45
2024/02/05 09:40:36;;;;;;;19.85;4.55;;;10.40;99.90;;;;;;5059977;28;20561;-46
2024/02/05 09:43:03;;;;;;;30.25;6.28;;;10.50;99.90;;;;;;5060098;28;20187;-46
2024/02/05 09:45:34;;;;;;;30.08;6.13;;;10.50;99.90;;;;;;5059213;28;21131;-45
2024/02/05 09:48:01;;;;;;;31.80;6.75;;;10.50;99.90;;;;;;5059706;28;20182;-48
2024/02/05 09:50:28;;;;;;;28.25;7.35;;;10.50;99.90;;;;;;5061171;28;20277;-42
2024/02/05 09:52:55;;;;;;;28.38;7.28;;;10.50;99.90;;;;;;5060920;28;20205;-47
2024/02/05 09:55:22;;;;;;;32.90;6.55;;;10.60;99.90;;;;;;5059389;28;20197;-46
2024/02/05 09:57:48;;;;;;;21.05;4.60;;;10.60;99.90;;;;;;5058623;28;20198;-44
2024/02/05 10:00:14;;;;;;;41.50;6.35;;;10.60;99.90;;;;;;5059746;28;20183;-51
2024/02/05 10:02:41;;;;;;;28.40;6.20;;;10.60;99.90;;;;;;5061063;28;20655;-47
2024/02/05 10:05:16;;;;;;;34.03;7.53;;;10.60;99.90;;;;;;5060475;28;20186;-42
2024/02/05 10:07:45;;;;;;;25.58;6.43;;;10.60;99.90;;;;;;5060272;28;20179;-46
2024/02/05 10:10:12;;;;;;;26.60;7.03;;;10.60;99.90;;;;;;5059946;28;20201;-46
2024/02/05 10:12:39;;;;;;;31.42;6.70;;;10.60;99.90;;;;;;5060144;28;20201;-44
2024/02/05 10:15:07;;;;;;;23.58;6.05;;;10.60;99.90;;;;;;5060638;28;20201;-46
2024/02/05 10:17:33;;;;;;;39.72;7.75;;;10.70;99.90;;;;;;5059564;28;20195;-48
2024/02/05 10:20:01;;;;;;;32.92;7.10;;;10.70;99.90;;;;;;5059507;28;21198;-45
2024/02/05 10:22:27;;;;;;;29.85;6.57;;;10.70;99.90;;;;;;5060724;28;20199;-47
2024/02/05 10:24:53;;;;;;;20.35;5.75;;;10.70;99.90;;;;;;5060822;28;20197;-47
2024/02/05 10:27:20;;;;;;;26.85;6.10;;;10.70;99.90;;;;;;5061075;28;20559;-50
2024/02/05 10:29:45;;;;;;;38.67;6.97;;;10.70;99.90;;;;;;5060117;28;20195;-53
2024/02/05 10:32:11;;;;;;;26.23;6.25;;;10.70;99.90;;;;;;5059818;28;20198;-44
2024/02/05 10:34:37;;;;;;;32.60;6.90;;;10.70;99.90;;;;;;5060027;28;20199;-45
2024/02/05 10:37:11;;;;;;;32.38;7.10;;;10.70;99.90;;;;;;5060181;28;20186;-43
2024/02/05 10:39:37;;;;;;;20.88;6.20;;;10.70;99.90;;;;;;5059036;28;20622;-44
2024/02/05 10:42:03;;;;;;;24.25;6.30;;;10.70;99.90;;;;;;5063981;28;20186;-46
2024/02/05 10:44:29;;;;;;;26.00;6.13;;;10.70;99.90;;;;;;5063491;28;20642;-47
2024/02/05 10:46:55;;;;;;;30.60;6.57;;;10.80;99.90;;;;;;5062274;28;20235;-42
2024/02/05 10:49:20;;;;;;;27.73;6.40;;;10.70;99.90;;;;;;5064117;28;20623;-41
2024/02/05 10:51:46;;;;;;;29.52;6.10;;;10.70;99.90;;;;;;5063266;28;20197;-44
2024/02/05 10:54:12;;;;;;;14.13;4.03;;;10.70;99.90;;;;;;5064005;28;20217;-42
2024/02/05 10:56:41;;;;;;;28.40;5.65;;;10.80;99.90;;;;;;5061824;28;20195;-48
2024/02/05 10:59:10;;;;;;;20.50;5.45;;;10.80;99.90;;;;;;5062706;28;20228;-47
2024/02/05 11:01:42;;;;;;;22.17;5.60;;;10.80;99.90;;;;;;5060366;28;20189;-47
2024/02/05 11:04:09;;;;;;;25.55;5.85;;;10.80;99.90;;;;;;5063727;28;20218;-45
2024/02/05 11:06:45;;;;;;;21.67;6.43;;;10.70;99.90;;;;;;5062402;28;20263;-50
2024/02/05 11:09:13;;;;;;;23.48;6.03;;;10.80;99.90;;;;;;5044179;28;20189;-47
2024/02/05 11:11:43;;;;;;;29.30;6.03;;;10.80;99.90;;;;;;5061892;28;20285;-42
2024/02/05 11:14:10;;;;;;;24.60;5.65;;;10.80;99.90;;;;;;5062137;28;20226;-46
2024/02/05 11:16:39;;;;;;;21.55;5.78;;;10.80;99.90;;;;;;5058111;28;20880;-44
2024/02/05 11:19:08;;;;;;;18.15;5.13;;;10.80;99.90;;;;;;5044983;28;20210;-41
2024/02/05 11:21:42;;;;;;;19.65;6.30;;;10.80;99.90;;;;;;5062293;28;20179;-44
2024/02/05 11:24:10;;;;;;;22.45;5.22;;;10.80;99.90;;;;;;5061908;28;20493;-46
2024/02/05 11:26:38;;;;;;;29.25;6.32;;;10.80;99.90;;;;;;5062277;28;20683;-46
2024/02/05 11:29:04;;;;;;;26.10;6.57;;;10.80;99.90;;;;;;5062804;28;20196;-50
2024/02/05 11:31:30;;;;;;;25.70;6.20;;;10.80;99.90;;;;;;5061342;28;20198;-47
2024/02/05 11:34:02;;;;;;;23.73;5.57;;;10.80;99.90;;;;;;5061759;28;20252;-49
2024/02/05 11:36:28;;;;;;;31.08;6.38;;;10.80;99.90;;;;;;5062408;28;20676;-46
2024/02/05 11:39:07;;;;;;;25.30;5.75;;;10.70;99.90;;;;;;5062834;28;20210;-46
2024/02/05 11:41:33;;;;;;;23.52;5.40;;;10.70;99.90;;;;;;5060494;28;20677;-50
2024/02/05 11:44:14;;;;;;;27.60;6.15;;;10.60;99.90;;;;;;5062617;28;20714;-48
2024/02/05 11:46:41;;;;;;;25.80;5.85;;;10.60;99.90;;;;;;5062669;28;20201;-48
2024/02/05 11:49:07;;;;;;;26.98;5.75;;;10.60;99.90;;;;;;5062613;28;20588;-45
2024/02/05 11:51:32;;;;;;;21.95;5.68;;;10.60;99.90;;;;;;5062841;28;20279;-48
2024/02/05 11:53:59;;;;;;;21.35;5.18;;;10.60;99.90;;;;;;5061535;28;20194;-45
2024/02/05 11:56:25;;;;;;;23.90;5.50;;;10.50;99.90;;;;;;5062951;28;20190;-43
2024/02/05 11:58:51;;;;;;;25.15;6.15;;;10.50;99.90;;;;;;5061867;28;20293;-46
2024/02/05 12:01:17;;;;;;;29.40;5.90;;;10.50;99.90;;;;;;5062870;28;20278;-42
2024/02/05 12:03:46;;;;;;;30.23;5.50;;;10.50;99.90;;;;;;5060047;28;20290;-50
2024/02/05 12:06:15;;;;;;;29.13;6.15;;;10.50;99.90;;;;;;5062138;28;20195;-50
2024/02/05 12:08:42;;;;;;;21.38;4.78;;;10.50;99.90;;;;;;5061317;28;20199;-48
2024/02/05 12:11:08;;;;;;;26.88;5.93;;;10.50;99.90;;;;;;5061860;28;20198;-46
2024/02/05 12:13:35;;;;;;;28.85;6.35;;;10.50;99.90;;;;;;5060805;28;20209;-47
2024/02/05 12:16:27;;;;;;;24.25;5.18;;;10.40;99.90;;;;;;5062280;28;21338;-46
2024/02/05 12:18:54;;;;;;;26.25;5.32;;;10.40;99.90;;;;;;5059736;28;20234;-44
2024/02/05 12:21:20;;;;;;;25.38;5.75;;;10.50;99.90;;;;;;5060022;28;20220;-45
2024/02/05 12:23:46;;;;;;;21.10;5.45;;;10.40;99.90;;;;;;5060613;28;20182;-47
2024/02/05 12:26:13;;;;;;;37.67;6.45;;;10.40;99.90;;;;;;5062434;28;20654;-52
2024/02/05 12:28:41;;;;;;;20.98;6.22;;;10.40;99.90;;;;;;5062113;28;20240;-47
2024/02/05 12:31:07;;;;;;;28.58;5.95;;;10.40;99.90;;;;;;5061412;28;20194;-47
2024/02/05 12:33:33;;;;;;;24.45;6.40;;;10.40;99.90;;;;;;5062082;28;20191;-43